This is the latest recevied weather packets stored in our database for station/object DC1MAK-13. If no packets are shown the sender has not sent any weather packets the latest 10 day(s).
| Time | Temp. | Humidity | Pressure | Rain* | Wind** | Luminosity | Snow |
|---|---|---|---|---|---|---|---|
| 1788027927 | 18.89° C | 79% | 986.6 hPa | - | - | - | - |
| 1788027620 | 19.44° C | 77% | 986.5 hPa | - | - | - | - |
| 1788027316 | 19.44° C | 77% | 986.4 hPa | - | - | - | - |
| 1788027013 | 19.44° C | 75% | 986.4 hPa | - | - | - | - |
| 1788026407 | 20° C | 73% | 986.4 hPa | - | - | - | - |
| 1788026107 | 20.56° C | 73% | 986.4 hPa | - | - | - | - |
| 1788025799 | 20.56° C | 71% | 986.5 hPa | - | - | - | - |
| 1788025495 | 20.56° C | 71% | 986.5 hPa | - | - | - | - |
| 1788025192 | 21.11° C | 68% | 986.4 hPa | - | - | - | - |
| 1788024587 | 21.11° C | 66% | 986.3 hPa | - | - | - | - |
| 1788024287 | 21.67° C | 65% | 986.3 hPa | - | - | - | - |
| 1788023978 | 21.67° C | 63% | 986.2 hPa | - | - | - | - |
| 1788023675 | 22.22° C | 63% | 986.2 hPa | - | - | - | - |
| 1788023371 | 22.22° C | 63% | 986.2 hPa | - | - | - | - |
| 1788022767 | 22.22° C | 59% | 986.1 hPa | - | - | - | - |
| 1788022467 | 22.78° C | 60% | 986.1 hPa | - | - | - | - |
| 1788022157 | 23.33° C | 56% | 986.1 hPa | - | - | - | - |
| 1788021854 | 24.44° C | 53% | 986.1 hPa | - | - | - | - |
| 1788021848 | 24.44° C | 53% | 986.1 hPa | - | - | - | - |
| 1788021553 | 25.56° C | 49% | 986.1 hPa | - | - | - | - |
| 1788020947 | 23.89° C | 53% | 986.1 hPa | - | - | - | - |
| 1788020938 | 23.89° C | 53% | 986.1 hPa | - | - | - | - |
| 1788020640 | 23.89° C | 51% | 986.1 hPa | - | - | - | - |
| 1788020337 | 23.89° C | 50% | 986.2 hPa | - | - | - | - |
| 1788020331 | 23.89° C | 50% | 986.2 hPa | - | - | - | - |
* Rain since midnight (hover to see other rain measurements)
** Current wind speed in m/s (hover to see current wind gust speed)